Aquilla, Alabama
Current Conditions -  °F | °C
As of 8:58 AM on Monday 22 Dec 2014 (Local Time) from KMEI Reporting Station
Overcast Overcast  
Wind Chill: 54°   Ceiling: 400
Heat Index: 54°   Visibility: 9mi
Dew Point: 53°   Wind: 6mph
Humidity: 97%   Direction: 140°SE
Pressure: 29.88"   Gusts: NA
Location:  31.6272°N, 88.354°W
Report Text: KMEI 221458Z 14005KT 9SM OVC004 12/12 A2988 RMK AO2 SLP116 60001 T01220117 55003
Loading
Personal Weather Stations






























Interactive Weather Map New forecast layout! Learn more

10-Day Weather Forecast

Advertisements
Track Severe Weather on mobile